Time;durP1;ratioP1;P1;durP2;ratioP2;P2;SDS_P1;SDS_P2;PMS_P1;PMS_P2;Temp;Humidity;BMP_temperature;BMP_pressure;BME280_temperature;BME280_humidity;BME280_pressure;Samples;Min_cycle;Max_cycle;Signal;HPM_P1;HPM_P2
2022/06/06 00:00:46;;;;;;;18.65;14.18;;;;;;;19.86;73.13;99660.69;5016410;28;20444;-92
2022/06/06 00:03:12;;;;;;;18.95;14.73;;;;;;;19.87;72.88;99654.25;5032834;28;20506;-92
2022/06/06 00:05:41;;;;;;;19.55;13.73;;;;;;;19.76;73.47;99652.13;5032796;28;20026;-92
2022/06/06 00:08:07;;;;;;;16.73;13.18;;;;;;;19.73;72.98;99647.94;5032536;28;20021;-93
2022/06/06 00:10:32;;;;;;;16.15;12.68;;;;;;;19.70;72.85;99644.81;5032242;28;20055;-92
2022/06/06 00:12:57;;;;;;;15.73;12.10;;;;;;;19.80;73.20;99648.78;5016019;28;20029;-92
2022/06/06 00:15:23;;;;;;;19.00;12.88;;;;;;;19.84;72.45;99661.94;5015991;28;20064;-91
2022/06/06 00:17:48;;;;;;;17.73;12.57;;;;;;;19.81;72.96;99655.06;5016281;28;20034;-93
2022/06/06 00:20:15;;;;;;;17.73;12.40;;;;;;;19.76;72.50;99652.13;5016445;28;20030;-93
2022/06/06 00:22:42;;;;;;;17.38;12.27;;;;;;;19.69;73.45;99643.97;5016385;28;20021;-94
2022/06/06 00:25:08;;;;;;;14.15;10.93;;;;;;;19.77;73.21;99645.66;5014836;28;20037;-93
2022/06/06 00:27:33;;;;;;;15.80;11.45;;;;;;;19.71;72.40;99644.59;5035421;28;20379;-91
2022/06/06 00:29:58;;;;;;;14.10;10.82;;;;;;;19.76;72.78;99643.97;5019030;28;20463;-91
2022/06/06 00:35:07;;;;;;;15.10;10.73;;;;;;;19.79;72.60;99646.28;5020796;28;20040;-92
2022/06/06 00:37:34;;;;;;;13.90;10.45;;;;;;;19.76;72.75;99647.53;5016115;28;20026;-91
2022/06/06 00:40:01;;;;;;;13.85;10.20;;;;;;;19.71;72.17;99655.44;5019079;28;20022;-91
2022/06/06 00:42:29;;;;;;;12.57;10.02;;;;;;;19.69;72.19;99660.25;5019022;28;20026;-92
2022/06/06 00:45:22;;;;;;;12.13;9.13;;;;;;;19.63;71.98;99654.81;5035389;28;20026;-92
2022/06/06 00:48:08;;;;;;;10.48;8.52;;;;;;;19.59;71.96;99657.09;5052027;28;20041;-91
2022/06/06 00:50:39;;;;;;;11.60;8.98;;;;;;;19.64;71.80;99668.16;5021311;28;20046;-93
2022/06/06 00:53:06;;;;;;;10.75;8.77;;;;;;;19.67;72.62;99665.03;5034583;28;20026;-91
2022/06/06 00:55:38;;;;;;;10.32;8.40;;;;;;;19.62;72.70;99659.41;5020973;28;20109;-93
2022/06/06 00:58:10;;;;;;;13.30;8.75;;;;;;;19.54;72.32;99651.44;4999680;28;20435;-91
2022/06/06 01:00:48;;;;;;;10.38;8.65;;;;;;;19.57;72.48;99659.16;5034941;28;20022;-93
2022/06/06 01:03:15;;;;;;;12.03;8.67;;;;;;;19.57;72.49;99650.19;5049602;28;20036;-93
2022/06/06 01:05:42;;;;;;;9.77;7.82;;;;;;;19.55;72.31;99646.84;5017885;28;20363;-91
2022/06/06 01:08:08;;;;;;;10.98;8.15;;;;;;;19.51;72.16;99646.38;5018565;28;20029;-93
2022/06/06 01:10:34;;;;;;;13.68;8.60;;;;;;;19.47;72.09;99645.97;5034882;28;20033;-92
2022/06/06 01:13:01;;;;;;;11.15;8.45;;;;;;;19.49;71.64;99634.91;5018870;28;20029;-91
2022/06/06 01:15:46;;;;;;;12.23;8.35;;;;;;;19.48;72.04;99638.66;5018741;28;20487;-92
2022/06/06 01:18:20;;;;;;;13.40;9.75;;;;;;;19.42;71.59;99632.16;5018327;28;20045;-93
2022/06/06 01:21:10;;;;;;;13.20;9.35;;;;;;;19.34;72.54;99629.59;5031532;28;20036;-94
2022/06/06 01:23:54;;;;;;;10.98;8.85;;;;;;;19.27;72.48;99636.03;5016240;28;20030;-91
2022/06/06 01:26:34;;;;;;;11.48;8.52;;;;;;;19.23;72.16;99634.78;5014929;28;20033;-92
2022/06/06 01:29:23;;;;;;;10.35;8.32;;;;;;;19.27;72.13;99642.31;4998430;28;20025;-94
2022/06/06 01:31:52;;;;;;;11.20;7.97;;;;;;;19.21;72.32;99648.53;5015042;28;20030;-92
2022/06/06 01:34:27;;;;;;;9.70;8.10;;;;;;;19.18;72.75;99646.22;5034422;28;20038;-93
2022/06/06 01:36:54;;;;;;;9.52;7.88;;;;;;;19.24;72.06;99650.84;5018097;28;20033;-90
2022/06/06 01:39:21;;;;;;;9.00;7.57;;;;;;;19.31;72.40;99650.88;5017940;28;20127;-93
2022/06/06 01:42:02;;;;;;;9.68;7.25;;;;;;;19.30;72.35;99646.50;5034489;28;20017;-92
2022/06/06 01:44:35;;;;;;;9.57;7.47;;;;;;;19.31;72.84;99642.75;5032571;28;20052;-92
2022/06/06 01:47:03;;;;;;;8.38;6.80;;;;;;;19.26;72.00;99645.22;5032265;28;20044;-93
2022/06/06 01:49:29;;;;;;;8.70;7.30;;;;;;;19.29;71.84;99647.53;5017703;28;20056;-93
2022/06/06 01:52:07;;;;;;;7.57;6.28;;;;;;;19.29;71.63;99642.94;5013817;28;20044;-91
2022/06/06 01:54:32;;;;;;;8.15;6.75;;;;;;;19.26;72.60;99654.19;5014662;28;20018;-91
2022/06/06 01:56:59;;;;;;;7.82;6.43;;;;;;;19.32;71.96;99645.25;5001245;28;20033;-92
2022/06/06 01:59:24;;;;;;;7.97;6.35;;;;;;;19.33;71.54;99641.50;4998122;28;20101;-91
2022/06/06 02:01:50;;;;;;;7.38;6.40;;;;;;;19.32;71.94;99649.84;5017716;28;20109;-92
2022/06/06 02:04:15;;;;;;;6.68;5.97;;;;;;;19.29;71.46;99642.94;5015667;28;20025;-90
2022/06/06 02:06:41;;;;;;;8.35;6.53;;;;;;;19.28;71.53;99641.25;5017675;28;20426;-91
2022/06/06 02:09:08;;;;;;;9.02;6.43;;;;;;;19.30;71.92;99635.66;5033980;28;20029;-90
2022/06/06 02:11:33;;;;;;;7.40;6.60;;;;;;;19.29;71.61;99636.69;5041849;28;20025;-92
2022/06/06 02:13:59;;;;;;;7.88;6.30;;;;;;;19.25;72.08;99638.13;5033659;28;20104;-91
2022/06/06 02:16:25;;;;;;;8.38;6.85;;;;;;;19.26;71.71;99635.22;5033292;28;20103;-90
2022/06/06 02:18:50;;;;;;;7.78;6.00;;;;;;;19.25;72.15;99630.81;5033827;28;20455;-91
2022/06/06 02:21:16;;;;;;;7.78;5.97;;;;;;;19.23;72.11;99629.34;5033994;28;20075;-91
2022/06/06 02:23:43;;;;;;;7.50;6.45;;;;;;;19.28;71.55;99638.56;5033660;28;20051;-91
2022/06/06 02:26:09;;;;;;;7.75;6.50;;;;;;;19.34;71.56;99639.63;5026941;28;20025;-91
2022/06/06 02:28:36;;;;;;;8.57;6.40;;;;;;;19.29;71.25;99631.25;5013539;28;20088;-91
2022/06/06 02:31:02;;;;;;;7.80;6.60;;;;;;;19.28;72.04;99629.59;5016649;28;20029;-90
2022/06/06 02:33:27;;;;;;;7.40;6.28;;;;;;;19.36;71.64;99626.69;5016552;28;20436;-90
2022/06/06 02:35:53;;;;;;;7.65;6.30;;;;;;;19.39;71.88;99629.00;5016015;28;20025;-90
2022/06/06 02:38:19;;;;;;;8.25;7.32;;;;;;;19.33;71.83;99627.94;5016733;28;20029;-94
2022/06/06 02:40:45;;;;;;;7.70;6.80;;;;;;;19.32;71.51;99620.00;5032751;28;20029;-91
2022/06/06 02:43:10;;;;;;;8.45;7.18;;;;;;;19.28;71.23;99622.28;5003539;28;20026;-90
2022/06/06 02:45:36;;;;;;;9.48;7.45;;;;;;;19.19;71.33;99612.66;5016235;28;20451;-92
2022/06/06 02:48:01;;;;;;;8.48;7.63;;;;;;;19.19;71.73;99616.22;5019956;28;20029;-92
2022/06/06 02:50:29;;;;;;;9.38;7.70;;;;;;;19.12;71.13;99615.34;5016473;28;20037;-91
2022/06/06 02:52:55;;;;;;;9.13;7.88;;;;;;;19.09;70.99;99614.91;5012020;28;20033;-91
2022/06/06 02:55:20;;;;;;;11.52;8.35;;;;;;;19.10;70.35;99613.88;5038876;28;20026;-94
2022/06/06 02:57:48;;;;;;;8.35;7.55;;;;;;;19.13;70.32;99610.75;5014909;28;20024;-91
2022/06/06 03:00:20;;;;;;;9.82;8.27;;;;;;;19.04;70.89;99620.94;5016537;28;20045;-90
2022/06/06 03:02:45;;;;;;;14.15;8.68;;;;;;;18.92;70.30;99622.53;5004544;28;20048;-90
2022/06/06 03:05:11;;;;;;;9.60;8.60;;;;;;;18.95;70.37;99626.72;5027796;28;20025;-91
2022/06/06 03:07:40;;;;;;;8.65;7.65;;;;;;;18.98;70.76;99621.75;5023534;28;20082;-93
2022/06/06 03:10:33;;;;;;;9.15;8.13;;;;;;;18.93;70.41;99618.81;5029306;28;20026;-93
2022/06/06 03:13:26;;;;;;;8.73;7.85;;;;;;;18.83;70.48;99621.00;5030713;28;20017;-92
2022/06/06 03:23:00;;;;;;;9.20;7.22;;;;;;;18.71;70.85;99628.03;5033460;28;20044;-92
2022/06/06 03:25:53;;;;;;;8.18;7.28;;;;;;;18.73;70.68;99631.38;4929128;29;20489;-95
2022/06/06 03:28:43;;;;;;;8.25;7.22;;;;;;;18.68;70.85;99641.97;4926864;29;20482;-92
2022/06/06 03:31:14;;;;;;;10.13;7.30;;;;;;;18.60;70.08;99644.78;4986091;28;20042;-93
2022/06/06 03:34:10;;;;;;;7.90;7.10;;;;;;;18.61;70.65;99643.75;5032181;28;20078;-90
2022/06/06 03:36:46;;;;;;;8.77;6.95;;;;;;;18.70;70.70;99650.72;5015701;28;20034;-94
2022/06/06 03:39:34;;;;;;;9.57;6.75;;;;;;;18.74;70.99;99649.28;5031586;28;20086;-93
2022/06/06 03:42:11;;;;;;;8.98;6.57;;;;;;;18.69;70.67;99643.63;5030974;28;20021;-91
2022/06/06 03:44:46;;;;;;;7.05;6.28;;;;;;;18.66;70.14;99650.28;5030185;28;20099;-92
2022/06/06 03:47:26;;;;;;;7.80;6.18;;;;;;;18.61;70.16;99646.47;5029720;28;20029;-92
2022/06/06 03:50:15;;;;;;;9.60;6.72;;;;;;;18.55;70.30;99648.94;5031762;28;20353;-91
2022/06/06 03:53:17;;;;;;;9.25;6.28;;;;;;;18.51;71.13;99639.53;5029494;28;20026;-92
2022/06/06 03:56:25;;;;;;;8.13;6.50;;;;;;;18.58;70.06;99644.16;4997518;28;20045;-94
2022/06/06 03:58:51;;;;;;;7.63;5.87;;;;;;;18.48;70.57;99645.34;4984114;28;20038;-91
2022/06/06 04:01:16;;;;;;;7.47;5.95;;;;;;;18.42;70.91;99646.09;5019164;28;20467;-92
2022/06/06 04:03:43;;;;;;;7.25;5.18;;;;;;;18.38;70.37;99652.09;5030395;28;20052;-91
2022/06/06 04:06:09;;;;;;;8.90;5.90;;;;;;;18.37;70.27;99650.44;5018874;28;20029;-92
2022/06/06 04:08:34;;;;;;;8.10;5.80;;;;;;;18.31;70.40;99651.22;5018637;28;20069;-93
2022/06/06 04:11:12;;;;;;;5.63;5.03;;;;;;;18.36;70.42;99649.59;5035074;28;20036;-90
2022/06/06 04:14:19;;;;;;;7.20;5.30;;;;;;;18.43;69.97;99650.47;5024125;28;20021;-94
2022/06/06 04:17:01;;;;;;;5.45;4.95;;;;;;;18.36;70.18;99654.16;5016459;28;20095;-92
2022/06/06 04:20:00;;;;;;;5.90;5.25;;;;;;;18.36;69.97;99646.88;5031821;28;20041;-93
2022/06/06 04:22:38;;;;;;;6.68;5.20;;;;;;;18.43;70.27;99653.19;5006784;28;20046;-93
2022/06/06 04:25:09;;;;;;;5.55;4.95;;;;;;;18.37;69.93;99658.56;5031108;28;20025;-91
2022/06/06 04:27:48;;;;;;;8.82;5.18;;;;;;;18.31;70.33;99649.34;5035390;28;20036;-92
2022/06/06 04:30:18;;;;;;;6.20;4.78;;;;;;;18.36;70.31;99654.16;5031543;28;20030;-93
2022/06/06 04:32:58;;;;;;;6.32;5.18;;;;;;;18.31;69.82;99654.75;5045366;28;20204;-92
2022/06/06 04:35:48;;;;;;;6.50;5.00;;;;;;;18.28;69.88;99662.44;5036461;28;20041;-93
2022/06/06 04:38:41;;;;;;;6.80;5.22;;;;;;;18.22;70.21;99664.88;5035183;28;20029;-92
2022/06/06 04:41:17;;;;;;;6.75;5.00;;;;;;;18.27;70.25;99664.31;5038569;28;20030;-93
2022/06/06 04:43:52;;;;;;;6.93;4.60;;;;;;;18.22;69.98;99661.34;5042811;28;20546;-93
2022/06/06 04:46:22;;;;;;;6.28;4.65;;;;;;;18.22;70.04;99659.47;5025378;28;20526;-92
2022/06/06 04:48:47;;;;;;;5.22;4.47;;;;;;;18.24;69.66;99662.81;5030123;28;20052;-91
2022/06/06 04:51:16;;;;;;;4.95;4.10;;;;;;;18.30;69.18;99663.91;5034991;28;20029;-92
2022/06/06 04:53:43;;;;;;;5.15;4.13;;;;;;;18.21;69.73;99667.78;5034371;28;20025;-91
2022/06/06 04:56:08;;;;;;;5.80;4.28;;;;;;;18.27;69.82;99661.59;5009634;28;20034;-93
2022/06/06 04:58:36;;;;;;;4.97;3.78;;;;;;;18.28;69.13;99657.03;5018120;28;20028;-92
2022/06/06 05:01:03;;;;;;;4.95;3.90;;;;;;;18.37;68.83;99663.97;5020480;28;20057;-91
2022/06/06 05:03:28;;;;;;;4.78;3.80;;;;;;;18.37;69.37;99667.50;5010148;28;20025;-93
2022/06/06 05:06:16;;;;;;;6.18;4.15;;;;;;;18.32;68.70;99661.84;5014192;28;20030;-91
2022/06/06 05:08:53;;;;;;;4.15;3.67;;;;;;;18.38;69.58;99673.75;5018388;28;20053;-93
2022/06/06 05:11:28;;;;;;;4.13;3.53;;;;;;;18.42;69.19;99675.88;5041831;28;20030;-94
2022/06/06 05:13:53;;;;;;;4.32;3.35;;;;;;;18.41;69.13;99679.63;5034297;28;20021;-93
2022/06/06 05:16:32;;;;;;;4.07;3.30;;;;;;;18.34;68.45;99670.63;5044813;28;20045;-91
2022/06/06 05:19:39;;;;;;;5.40;3.25;;;;;;;18.31;67.88;99664.75;5041926;28;20097;-91
2022/06/06 05:22:40;;;;;;;3.72;3.28;;;;;;;18.31;68.16;99672.88;5048566;28;20021;-94
2022/06/06 05:25:44;;;;;;;4.72;3.25;;;;;;;18.36;68.04;99679.38;5041335;28;20056;-92
2022/06/06 05:28:41;;;;;;;3.55;3.08;;;;;;;18.30;67.69;99685.56;5030703;28;20037;-93
2022/06/06 05:31:07;;;;;;;4.22;2.70;;;;;;;18.41;67.19;99684.22;5049926;28;20499;-95
2022/06/06 05:33:54;;;;;;;3.83;3.00;;;;;;;18.25;66.81;99691.56;5033307;28;20033;-90
2022/06/06 05:36:25;;;;;;;3.97;2.80;;;;;;;18.30;66.88;99685.56;5043976;28;20028;-92
2022/06/06 05:39:28;;;;;;;4.18;2.97;;;;;;;18.33;67.51;99695.19;5049160;28;20163;-93
2022/06/06 05:41:59;;;;;;;3.30;2.67;;;;;;;18.35;67.01;99693.94;5045743;28;20040;-93
2022/06/06 05:44:37;;;;;;;3.55;2.30;;;;;;;18.22;66.73;99691.13;5032544;28;20048;-94
2022/06/06 05:47:06;;;;;;;2.85;2.45;;;;;;;18.23;65.52;99692.81;5033800;28;20035;-93
2022/06/06 05:49:44;;;;;;;2.78;2.25;;;;;;;18.23;65.68;99685.50;5036016;28;20057;-94
2022/06/06 05:52:28;;;;;;;3.03;2.42;;;;;;;18.20;65.87;99693.19;5049200;28;20033;-94
2022/06/06 05:54:56;;;;;;;3.47;2.33;;;;;;;18.21;65.50;99686.75;5019974;28;20426;-91
2022/06/06 05:57:49;;;;;;;3.75;2.38;;;;;;;18.42;66.54;99685.88;5032740;28;20033;-94
2022/06/06 06:00:39;;;;;;;2.55;2.33;;;;;;;18.37;66.14;99688.34;5032527;28;20112;-91
2022/06/06 06:03:26;;;;;;;3.45;2.50;;;;;;;18.25;65.40;99688.88;5031954;28;20026;-93
2022/06/06 06:06:03;;;;;;;2.72;2.13;;;;;;;18.29;65.13;99686.59;5024222;28;20033;-91
2022/06/06 06:08:52;;;;;;;4.13;2.25;;;;;;;18.20;65.15;99685.06;5047497;28;20026;-91
2022/06/06 06:11:53;;;;;;;2.60;2.13;;;;;;;18.24;65.40;99694.47;5029214;28;20037;-90
2022/06/06 06:14:38;;;;;;;3.63;2.25;;;;;;;18.27;65.18;99691.38;5018662;28;20141;-93
2022/06/06 06:17:04;;;;;;;3.10;2.10;;;;;;;18.40;66.27;99691.50;5039553;28;20056;-91
2022/06/06 06:19:36;;;;;;;3.30;2.38;;;;;;;18.42;65.84;99697.56;5029745;28;20033;-90
2022/06/06 06:22:02;;;;;;;2.90;2.17;;;;;;;18.36;65.06;99695.63;5033429;28;20029;-93
2022/06/06 06:24:33;;;;;;;3.75;1.95;;;;;;;18.42;66.17;99700.25;5011301;28;20313;-88
2022/06/06 06:27:01;;;;;;;2.63;2.22;;;;;;;18.36;64.50;99709.16;5026784;28;20419;-89
2022/06/06 06:29:27;;;;;;;2.55;1.92;;;;;;;18.32;65.08;99709.75;5027351;28;20044;-89
2022/06/06 06:32:08;;;;;;;4.47;1.90;;;;;;;18.40;65.28;99710.44;5026910;28;20048;-93
2022/06/06 06:34:52;;;;;;;2.05;1.85;;;;;;;18.30;64.78;99717.22;5000375;28;20152;-90
2022/06/06 06:37:46;;;;;;;3.15;1.85;;;;;;;18.22;64.29;99718.19;5010222;28;20182;-94
2022/06/06 06:40:34;;;;;;;1.55;1.45;;;;;;;18.19;64.55;99718.59;5043920;28;20036;-90
2022/06/06 06:43:24;;;;;;;2.47;1.95;;;;;;;18.20;63.91;99723.81;5000629;28;20064;-90
2022/06/06 06:45:54;;;;;;;2.55;1.40;;;;;;;18.34;65.00;99722.06;5021981;28;20059;-89
2022/06/06 06:48:46;;;;;;;3.38;1.70;;;;;;;18.30;63.82;99718.06;5011144;28;20523;-90
2022/06/06 06:51:21;;;;;;;2.13;1.60;;;;;;;18.32;63.82;99717.88;5006484;28;20047;-90
2022/06/06 06:54:05;;;;;;;1.67;1.40;;;;;;;18.27;63.58;99732.00;5027326;28;20064;-91
2022/06/06 06:56:48;;;;;;;2.20;1.60;;;;;;;18.23;62.31;99725.28;5034205;28;20041;-94
2022/06/06 06:59:29;;;;;;;2.22;1.30;;;;;;;18.47;63.97;99727.63;5032750;28;20049;-89
2022/06/06 07:11:33;;;;;;;1.85;1.30;;;;;;;18.48;64.93;99728.47;5033954;28;20048;-87
2022/06/06 07:14:07;;;;;;;1.15;1.05;;;;;;;18.61;64.45;99716.91;5041419;28;20025;-89
2022/06/06 07:16:35;;;;;;;1.58;1.17;;;;;;;18.61;63.65;99719.59;5023821;28;20033;-88
2022/06/06 07:19:17;;;;;;;3.22;1.20;;;;;;;18.62;63.06;99721.31;5007208;28;20076;-88
2022/06/06 07:21:45;;;;;;;1.67;1.10;;;;;;;18.60;62.70;99723.34;5021093;28;20047;-84
2022/06/06 07:24:14;;;;;;;1.23;0.83;;;;;;;18.57;62.56;99732.69;5015954;28;20033;-84
2022/06/06 07:26:41;;;;;;;;;;;;;;;18.48;60.90;99744.72;5011875;28;20375;-84
2022/06/06 07:29:10;;;;;;;1.63;1.13;;;;;;;18.49;61.02;99730.13;5031143;28;19971;-88
2022/06/06 07:32:13;;;;;;;1.80;1.27;;;;;;;18.48;61.68;99726.59;5013816;28;20022;-88
2022/06/06 07:35:01;;;;;;;1.73;1.15;;;;;;;18.43;61.38;99720.06;5028714;28;20053;-85
2022/06/06 07:37:47;;;;;;;1.92;1.02;;;;;;;18.36;61.27;99717.28;5011576;28;21089;-84
2022/06/06 07:40:24;;;;;;;1.10;1.00;;;;;;;18.41;61.80;99719.41;5034628;28;20026;-84
2022/06/06 07:43:05;;;;;;;2.35;1.23;;;;;;;18.39;60.81;99716.06;5034929;28;20033;-84
2022/06/06 07:45:38;;;;;;;1.77;1.00;;;;;;;18.37;61.16;99710.84;5041210;28;20033;-84
2022/06/06 07:48:06;;;;;;;1.15;0.93;;;;;;;18.36;61.16;99705.63;5021452;28;20030;-85
2022/06/06 07:50:40;;;;;;;1.80;1.05;;;;;;;18.32;61.53;99720.56;5048787;28;20057;-84
2022/06/06 07:53:36;;;;;;;1.38;1.15;;;;;;;18.41;61.34;99722.13;5032789;28;20041;-84
2022/06/06 07:56:07;;;;;;;1.33;1.20;;;;;;;18.49;61.93;99720.13;5020025;28;20025;-89
2022/06/06 07:58:41;;;;;;;2.08;1.15;;;;;;;18.46;61.02;99716.97;5030025;28;20060;-89
2022/06/06 08:01:10;;;;;;;2.75;1.10;;;;;;;18.49;62.05;99724.72;5021858;28;20506;-90
2022/06/06 08:03:43;;;;;;;1.65;1.20;;;;;;;18.49;62.34;99713.88;5037340;28;20029;-89
2022/06/06 08:06:30;;;;;;;1.88;1.00;;;;;;;18.45;61.45;99705.31;5034518;28;20045;-89
2022/06/06 08:09:05;;;;;;;2.28;0.95;;;;;;;18.48;61.01;99714.91;5035570;28;20646;-91
2022/06/06 08:11:40;;;;;;;2.33;0.80;;;;;;;18.52;61.94;99710.78;5026513;28;20026;-89
2022/06/06 08:14:26;;;;;;;1.67;0.90;;;;;;;18.50;61.14;99716.41;5032221;28;20026;-89
2022/06/06 08:17:30;;;;;;;0.95;0.77;;;;;;;18.55;61.16;99715.81;5001565;28;20499;-87
2022/06/06 08:20:06;;;;;;;1.42;0.80;;;;;;;18.56;61.41;99712.06;5015366;28;20034;-88
2022/06/06 08:22:32;;;;;;;0.85;0.80;;;;;;;18.65;62.12;99715.50;5010228;28;20658;-93
2022/06/06 08:25:00;;;;;;;1.45;0.73;;;;;;;18.78;62.07;99705.59;5034100;28;20025;-88
2022/06/06 08:27:27;;;;;;;1.50;0.90;;;;;;;18.76;61.70;99720.38;5029027;28;20018;-88
2022/06/06 08:29:52;;;;;;;2.70;1.10;;;;;;;18.74;62.03;99717.88;5011248;28;20030;-88
2022/06/06 08:32:18;;;;;;;1.15;0.73;;;;;;;18.81;63.17;99718.75;5035825;28;20037;-88
2022/06/06 08:34:44;;;;;;;3.50;1.10;;;;;;;18.79;62.42;99715.41;5035308;28;20021;-89
2022/06/06 08:37:14;;;;;;;1.23;0.75;;;;;;;18.79;62.78;99720.00;5011067;28;20180;-88
2022/06/06 08:39:59;;;;;;;1.60;1.05;;;;;;;18.70;62.30;99707.63;5027896;28;20030;-88
2022/06/06 08:42:44;;;;;;;0.82;0.82;;;;;;;18.81;63.35;99712.50;5008400;28;20025;-88
2022/06/06 08:45:16;;;;;;;1.73;1.00;;;;;;;18.81;64.07;99709.78;5031857;28;20108;-88
2022/06/06 08:47:56;;;;;;;0.60;0.60;;;;;;;18.77;62.42;99711.22;5033716;28;20034;-88
2022/06/06 08:50:50;;;;;;;0.85;0.80;;;;;;;18.71;62.48;99717.41;5032071;28;20030;-88
2022/06/06 08:53:53;;;;;;;2.50;0.70;;;;;;;18.68;62.80;99715.94;5026731;28;20174;-91
2022/06/06 08:57:00;;;;;;;2.60;0.80;;;;;;;18.68;62.25;99736.78;5044534;28;20064;-89
2022/06/06 08:59:54;;;;;;;1.15;0.75;;;;;;;18.73;62.68;99724.31;5022670;28;20352;-90
2022/06/06 09:02:28;;;;;;;0.50;0.50;;;;;;;18.71;61.84;99731.81;5016286;28;20034;-92
2022/06/06 09:05:23;;;;;;;0.95;0.70;;;;;;;18.70;62.45;99724.72;5037250;28;20029;-89
2022/06/06 09:08:13;;;;;;;1.38;0.70;;;;;;;18.70;62.50;99715.75;5036941;28;20383;-89
2022/06/06 09:11:03;;;;;;;1.13;0.68;;;;;;;18.79;63.09;99717.28;5038247;28;20029;-90
2022/06/06 09:13:47;;;;;;;0.60;0.60;;;;;;;18.88;62.56;99726.94;5049385;28;20021;-92
2022/06/06 09:16:16;;;;;;;0.43;0.43;;;;;;;18.90;62.93;99721.31;5045293;28;20029;-90
2022/06/06 09:18:55;;;;;;;0.63;0.60;;;;;;;18.95;62.77;99730.56;5038563;28;20446;-89
2022/06/06 09:21:53;;;;;;;0.60;0.60;;;;;;;19.06;63.78;99726.44;5046890;28;20085;-90
2022/06/06 09:24:34;;;;;;;1.02;0.60;;;;;;;19.01;62.46;99723.50;5031675;28;20033;-92
2022/06/06 09:27:24;;;;;;;6.05;0.68;;;;;;;19.08;63.45;99729.81;5036498;28;20076;-90
2022/06/06 09:30:19;;;;;;;1.50;0.70;;;;;;;19.07;63.28;99725.41;5036472;28;20030;-91
2022/06/06 09:33:13;;;;;;;1.27;0.80;;;;;;;19.10;63.38;99719.59;5035820;28;20037;-90
2022/06/06 09:35:51;;;;;;;1.27;0.75;;;;;;;19.04;62.61;99718.53;5032025;28;20604;-70
2022/06/06 09:38:35;;;;;;;1.42;0.75;;;;;;;19.06;62.98;99716.44;5027650;28;20021;-71
2022/06/06 09:41:19;;;;;;;2.30;0.82;;;;;;;19.05;63.01;99706.63;5028058;28;20037;-71
2022/06/06 09:44:15;;;;;;;0.63;0.55;;;;;;;19.00;62.68;99713.69;5027900;28;20045;-71
2022/06/06 09:47:05;;;;;;;1.10;0.98;;;;;;;18.98;62.63;99700.34;5027478;28;20033;-71
2022/06/06 09:49:44;;;;;;;1.25;0.70;;;;;;;18.95;62.61;99703.44;5030838;28;20034;-94
2022/06/06 09:52:28;;;;;;;0.88;0.70;;;;;;;18.96;62.95;99691.56;5035257;28;20379;-94
2022/06/06 10:01:58;;;;;;;1.67;0.70;;;;;;;19.12;63.71;99685.81;5036162;28;20055;-95
2022/06/06 10:04:56;;;;;;;2.10;0.85;;;;;;;19.17;63.30;99696.06;5035189;28;20041;-94
2022/06/06 10:07:33;;;;;;;1.95;0.90;;;;;;;19.06;61.93;99683.91;5035004;28;20025;-94
2022/06/06 10:10:31;;;;;;;1.05;0.95;;;;;;;19.08;61.97;99686.44;5035154;28;20088;-95
2022/06/06 10:13:10;;;;;;;2.17;0.90;;;;;;;19.10;62.93;99676.22;5035050;28;20091;-95
2022/06/06 10:16:14;;;;;;;;;;;;;;;;;;;;;
2022/06/06 10:18:39;;;;;;;2.25;1.00;;;;;;;19.20;63.56;99671.28;5041609;28;20108;-94
2022/06/06 10:21:48;;;;;;;1.60;1.10;;;;;;;19.18;62.89;99678.75;5049346;28;20029;-95
2022/06/06 10:24:38;;;;;;;1.45;0.82;;;;;;;19.23;62.48;99667.31;5065053;28;20056;-96
2022/06/06 10:27:32;;;;;;;1.60;0.90;;;;;;;19.23;61.91;99668.16;5053353;28;20030;-96
2022/06/06 10:30:22;;;;;;;2.55;1.30;;;;;;;19.26;62.40;99661.50;5051263;28;20025;-96
2022/06/06 10:32:58;;;;;;;1.40;0.88;;;;;;;19.26;62.72;99666.91;5054631;28;20041;-96
2022/06/06 10:35:58;;;;;;;1.30;0.90;;;;;;;19.29;62.42;99664.63;5028192;28;21022;-73
2022/06/06 10:38:38;;;;;;;2.00;1.05;;;;;;;19.35;63.24;99660.28;5028053;28;20038;-74
2022/06/06 10:41:10;;;;;;;1.23;1.00;;;;;;;19.40;63.06;99663.25;5029575;28;20087;-75
2022/06/06 10:43:58;;;;;;;3.13;1.20;;;;;;;19.40;63.88;99655.13;5044449;28;20063;-95
2022/06/06 10:46:31;;;;;;;2.40;0.98;;;;;;;19.37;63.48;99653.63;5036944;28;20026;-94
2022/06/06 10:49:15;;;;;;;3.72;1.10;;;;;;;19.36;63.10;99651.09;5017079;28;20493;-93
2022/06/06 10:52:02;;;;;;;3.70;1.00;;;;;;;19.38;63.67;99666.13;5041430;28;20034;-93
2022/06/06 10:55:07;;;;;;;2.45;1.10;;;;;;;19.40;63.15;99669.50;5033461;28;20025;-91
2022/06/06 10:57:49;;;;;;;1.95;1.00;;;;;;;19.48;64.10;99652.22;5032810;28;20033;-91
2022/06/06 11:00:23;;;;;;;2.42;1.10;;;;;;;19.50;62.58;99653.69;5033400;28;20052;-93
2022/06/06 11:02:57;;;;;;;2.58;0.93;;;;;;;19.49;62.63;99657.44;5016247;28;20087;-80
2022/06/06 11:06:00;;;;;;;1.35;1.00;;;;;;;19.52;62.51;99644.50;5029060;28;20041;-73
2022/06/06 11:08:39;;;;;;;1.52;1.02;;;;;;;19.59;62.90;99646.22;5027388;28;20025;-72
2022/06/06 11:11:08;;;;;;;1.50;1.10;;;;;;;19.63;63.45;99642.06;5032266;28;20079;-94
2022/06/06 11:13:43;;;;;;;3.33;1.00;;;;;;;19.63;61.78;99668.38;5033938;28;20029;-92
2022/06/06 11:16:29;;;;;;;1.80;1.10;;;;;;;19.57;62.98;99648.31;5043503;28;20029;-93
2022/06/06 11:19:07;;;;;;;1.38;1.02;;;;;;;19.49;63.69;99645.75;5033045;28;20510;-92
2022/06/06 11:22:02;;;;;;;1.10;1.00;;;;;;;19.52;64.65;99642.63;5032918;28;20033;-93
2022/06/06 11:24:34;;;;;;;2.70;1.00;;;;;;;19.50;64.59;99647.44;4995619;28;20042;-92
2022/06/06 11:27:21;;;;;;;1.63;0.90;;;;;;;19.48;64.55;99650.34;5032828;28;20022;-93
2022/06/06 11:29:59;;;;;;;1.42;1.10;;;;;;;19.47;65.10;99650.53;5017014;28;20498;-94
2022/06/06 11:32:48;;;;;;;1.88;1.17;;;;;;;19.48;65.20;99649.50;5030785;28;20037;-74
2022/06/06 11:35:27;;;;;;;;;;;;;;;19.49;64.53;99643.88;4996816;28;20562;-87
2022/06/06 11:38:05;;;;;;;1.52;0.98;;;;;;;19.46;64.30;99648.88;4996486;28;19913;-88
2022/06/06 11:41:04;;;;;;;1.73;1.10;;;;;;;19.50;64.12;99650.13;4996556;28;20119;-88
2022/06/06 11:44:05;;;;;;;3.58;0.90;;;;;;;19.48;63.79;99649.50;5029472;28;20475;-87
2022/06/06 11:47:08;;;;;;;1.98;1.05;;;;;;;19.47;63.29;99647.84;5038882;28;20028;-88
2022/06/06 11:49:48;;;;;;;1.92;1.00;;;;;;;19.48;62.12;99649.50;5044548;28;20575;-87
2022/06/06 11:52:42;;;;;;;1.05;0.90;;;;;;;19.55;62.87;99642.25;5017963;28;20075;-89
2022/06/06 11:55:29;;;;;;;2.08;0.90;;;;;;;19.58;62.59;99641.00;5029526;28;20022;-87
2022/06/06 11:58:12;;;;;;;1.80;0.95;;;;;;;19.61;61.38;99641.44;5017788;28;20033;-86
2022/06/06 12:01:15;;;;;;;1.17;0.88;;;;;;;19.66;61.85;99633.53;5014725;28;20018;-88
2022/06/06 12:04:17;;;;;;;1.58;0.80;;;;;;;19.64;57.98;99638.31;5046164;28;20033;-88
2022/06/06 12:07:01;;;;;;;1.45;0.70;;;;;;;19.69;60.60;99619.53;5019796;28;20053;-89
2022/06/06 12:09:35;;;;;;;3.42;0.75;;;;;;;19.65;57.96;99623.72;5025208;28;20045;-90
2022/06/06 12:12:17;;;;;;;2.78;1.00;;;;;;;19.64;57.59;99635.59;5044784;28;20034;-88
2022/06/06 12:15:12;;;;;;;2.08;1.00;;;;;;;19.67;59.59;99629.78;5020044;28;20021;-90
2022/06/06 12:18:00;;;;;;;1.10;0.80;;;;;;;19.71;60.51;99633.75;5035242;28;20106;-88
2022/06/06 12:20:53;;;;;;;2.10;0.82;;;;;;;19.73;60.87;99634.38;5021712;28;20026;-88
2022/06/06 12:23:37;;;;;;;1.27;0.90;;;;;;;19.74;59.86;99640.63;5051213;28;20061;-91
2022/06/06 12:26:19;;;;;;;2.35;0.90;;;;;;;19.71;60.01;99639.16;5031805;28;20726;-84
2022/06/06 12:29:03;;;;;;;2.97;1.00;;;;;;;19.75;60.97;99634.16;5028882;28;20033;-85
2022/06/06 12:31:51;;;;;;;1.63;0.80;;;;;;;19.71;60.94;99635.63;5037472;28;20041;-84
2022/06/06 12:34:36;;;;;;;0.73;0.73;;;;;;;19.76;61.71;99641.25;5014311;28;20079;-83
2022/06/06 12:37:10;;;;;;;1.48;0.85;;;;;;;19.77;60.68;99632.91;5008433;28;20048;-85
2022/06/06 12:39:45;;;;;;;1.83;0.90;;;;;;;19.83;60.90;99633.97;5034733;28;20032;-89
2022/06/06 12:42:15;;;;;;;0.95;0.70;;;;;;;19.77;61.04;99642.94;5052237;28;20516;-90
2022/06/06 12:45:03;;;;;;;1.13;0.68;;;;;;;19.71;61.30;99631.03;5035756;28;20025;-90
2022/06/06 12:47:34;;;;;;;1.42;0.70;;;;;;;19.67;61.71;99626.22;5032292;28;20026;-89
2022/06/06 12:50:15;;;;;;;1.48;0.75;;;;;;;19.77;61.95;99627.50;5032373;28;20070;-91
2022/06/06 12:53:18;;;;;;;1.08;0.75;;;;;;;19.83;61.05;99625.00;5027981;28;20026;-90